Val-d'Or Airport
CYVO : now visible

Airfield :











YOU CAN JOIN US ON...

 
LOGIN :

Register | Disclaimer

   EN    FR    IT 

 









Legend :    VFR   Marginal VFR   IFR   Intensive IFR   Very Intensive IFR
Visi :
Ceiling :
>= 8 km
>= 3000ft
5 to 8 km
1000 to 3000 ft
1500m to 5 km
500 to 1000 ft
800 to 1500m
200 to 500 ft
< 800m
< 200 ft
Symbols :   Thunderstorms  Fog  Heavy snow  Heavy precipitations  Wind > 20 kt






- Airport Elevation : 1107 ft
- IATA code : YVO


CYVO - Val-d'Or

CURRENT METAR :
  • 090100Z 26003KT 15SM FEW085 26/15 A2986 RMK AC1 SLP112 DENSITY ALT 2700FT

EXPIRED METARs :
  • 090000Z VRB02KT 15SM FEW080 29/13 A2984 RMK AC1 SLP105 DENSITY ALT 3100FT
  • 082300Z 28006KT 220V300 15SM FEW070 30/12 A2983 RMK AC1 SLP104 DENSITY ALT 3200FT

TAF TAF CYVO
Valid from the 09 at 00:00 until the 09 at 12:00 UTC


082338Z 0900/0912 VRB03KT P6SM SCT060
BECMG 0907/0909 SCT160 RMK NXT FCST BY 090600Z
CZUL FIR / North America



MET'MAP, your aeronautical weather chart ! - Copyright ORBIFLY December 2007 - Disclaimer

ORBIFLY MET'MAP TEAM :

Programming & Development : Alexandra Zaïnal
Concept & original design : Baudouin d'Aumeries
Assistance for programming : Marc-Olivier Méhu
Technical & hardware support : Manuel Goepfert

Contact : metmap@orbifly.com




SOURCES & CREDITS :

   NOAA       Earth
Advisory